Time;durP1;ratioP1;P1;durP2;ratioP2;P2;SDS_P1;SDS_P2;PMS_P1;PMS_P2;Temp;Humidity;BMP_temperature;BMP_pressure;BME280_temperature;BME280_humidity;BME280_pressure;Samples;Min_cycle;Max_cycle;Signal;HPM_P1;HPM_P2
2023/11/02 00:01:21;;;;;;;6.03;4.22;;;;;;;;;;6085673;23;20026;-68
2023/11/02 00:04:15;;;;;;;6.85;4.65;;;;;;;;;;6087398;23;20499;-64
2023/11/02 00:07:03;;;;;;;5.25;4.03;;;;;;;;;;6087551;23;20410;-64
2023/11/02 00:09:58;;;;;;;8.00;4.50;;;;;;;;;;6086657;23;20023;-64
2023/11/02 00:12:44;;;;;;;5.43;4.03;;;;;;;;;;6085363;23;20393;-65
2023/11/02 00:15:39;;;;;;;6.43;4.32;;;;;;;;;;6085576;23;20305;-64
2023/11/02 00:18:06;;;;;;;5.28;3.55;;;;;;;;;;6087264;23;20085;-64
2023/11/02 00:21:00;;;;;;;7.15;4.32;;;;;;;;;;6085919;23;20405;-64
2023/11/02 00:23:48;;;;;;;5.95;3.80;;;;;;;;;;6085954;23;20101;-67
2023/11/02 00:26:48;;;;;;;5.85;3.90;;;;;;;;;;6085744;23;20373;-52
2023/11/02 00:29:37;;;;;;;7.95;3.72;;;;;;;;;;6085190;23;20058;-49
2023/11/02 00:32:29;;;;;;;7.68;3.92;;;;;;;;;;6085722;23;20073;-49
2023/11/02 00:35:16;;;;;;;6.10;3.80;;;;;;;;;;6084874;23;20029;-49
2023/11/02 00:38:10;;;;;;;4.88;3.90;;;;;;;;;;6067001;23;20485;-50
2023/11/02 00:40:58;;;;;;;5.70;3.72;;;;;;;;;;6085168;23;20924;-59
2023/11/02 00:43:51;;;;;;;6.78;3.78;;;;;;;;;;6086066;23;20026;-63
2023/11/02 00:46:38;;;;;;;5.95;4.00;;;;;;;;;;6085054;23;20030;-60
2023/11/02 00:49:32;;;;;;;6.10;3.85;;;;;;;;;;6085927;23;20457;-60
2023/11/02 00:52:20;;;;;;;6.63;4.32;;;;;;;;;;6088102;23;20401;-60
2023/11/02 00:55:33;;;;;;;5.00;3.70;;;;;;;;;;6085141;23;20026;-58
2023/11/02 00:58:24;;;;;;;6.20;4.10;;;;;;;;;;6087474;23;20026;-62
2023/11/02 01:01:18;;;;;;;7.18;4.05;;;;;;;;;;6085537;23;20089;-66
2023/11/02 01:04:07;;;;;;;6.40;3.90;;;;;;;;;;6086888;23;20038;-55
2023/11/02 01:07:00;;;;;;;6.53;3.92;;;;;;;;;;6086326;23;20078;-53
2023/11/02 01:09:47;;;;;;;5.72;3.90;;;;;;;;;;6083607;23;20030;-54
2023/11/02 01:12:41;;;;;;;4.97;3.78;;;;;;;;;;6085013;23;20045;-52
2023/11/02 01:15:44;;;;;;;5.78;3.97;;;;;;;;;;6083665;23;20026;-48
2023/11/02 01:18:41;;;;;;;5.88;4.15;;;;;;;;;;6086058;23;20037;-60
2023/11/02 01:21:29;;;;;;;7.32;4.30;;;;;;;;;;6083473;23;20028;-68
2023/11/02 01:24:23;;;;;;;6.40;4.45;;;;;;;;;;6084541;23;20073;-67
2023/11/02 01:27:24;;;;;;;6.68;4.40;;;;;;;;;;6084623;23;20026;-67
2023/11/02 01:30:19;;;;;;;6.20;3.88;;;;;;;;;;6084876;23;20368;-67
2023/11/02 01:33:30;;;;;;;14.35;4.30;;;;;;;;;;6087451;23;20030;-67
2023/11/02 01:36:23;;;;;;;5.43;3.95;;;;;;;;;;6085129;23;20037;-66
2023/11/02 01:39:16;;;;;;;8.73;4.40;;;;;;;;;;6085488;23;20070;-52
2023/11/02 01:42:17;;;;;;;6.15;4.15;;;;;;;;;;6081517;23;20022;-50
2023/11/02 01:45:06;;;;;;;7.07;3.83;;;;;;;;;;6082091;23;20100;-54
2023/11/02 01:48:02;;;;;;;7.25;4.60;;;;;;;;;;6087062;23;20023;-51
2023/11/02 01:50:56;;;;;;;6.53;4.35;;;;;;;;;;6084096;23;20033;-52
2023/11/02 01:53:53;;;;;;;6.78;4.22;;;;;;;;;;6084902;23;20023;-50
2023/11/02 01:56:50;;;;;;;5.68;4.30;;;;;;;;;;6082896;23;20029;-65
2023/11/02 01:59:50;;;;;;;7.70;4.28;;;;;;;;;;6080526;23;20503;-62
2023/11/02 02:02:49;;;;;;;7.63;4.40;;;;;;;;;;6084719;23;20037;-60
2023/11/02 02:05:51;;;;;;;5.50;3.95;;;;;;;;;;6084741;23;20097;-61
2023/11/02 02:08:53;;;;;;;9.23;4.80;;;;;;;;;;6085181;23;20035;-61
2023/11/02 02:11:57;;;;;;;8.15;4.50;;;;;;;;;;6084754;23;20230;-61
2023/11/02 02:14:59;;;;;;;7.57;3.90;;;;;;;;;;6081601;23;20033;-62
2023/11/02 02:17:54;;;;;;;6.90;4.00;;;;;;;;;;6085115;23;20026;-67
2023/11/02 02:20:51;;;;;;;7.65;4.30;;;;;;;;;;6082746;23;20528;-66
2023/11/02 02:23:45;;;;;;;6.65;4.30;;;;;;;;;;6083908;23;20073;-67
2023/11/02 02:26:59;;;;;;;5.68;3.55;;;;;;;;;;6084595;23;20101;-67
2023/11/02 02:30:04;;;;;;;5.75;3.65;;;;;;;;;;6083988;23;20026;-66
2023/11/02 02:33:20;;;;;;;9.80;4.30;;;;;;;;;;6084532;23;20435;-50
2023/11/02 02:36:33;;;;;;;8.93;3.85;;;;;;;;;;6084890;23;20468;-67
2023/11/02 02:39:22;;;;;;;5.65;3.42;;;;;;;;;;6086110;23;20465;-66
2023/11/02 02:42:18;;;;;;;8.20;3.72;;;;;;;;;;6085814;23;20026;-66
2023/11/02 02:45:06;;;;;;;;;;;;;;;;;;6085097;23;20101;-67
2023/11/02 02:48:00;;;;;;;9.80;4.15;;;;;;;;;;6084017;23;19921;-66
2023/11/02 02:50:52;;;;;;;13.25;4.55;;;;;;;;;;6084768;23;20027;-61
2023/11/02 02:53:43;;;;;;;8.77;4.28;;;;;;;;;;6086566;23;20025;-65
2023/11/02 02:56:31;;;;;;;10.10;4.32;;;;;;;;;;6085646;23;20364;-64
2023/11/02 02:59:26;;;;;;;6.80;4.18;;;;;;;;;;6087242;23;20030;-67
2023/11/02 03:02:13;;;;;;;11.35;4.63;;;;;;;;;;6085035;23;20415;-65
2023/11/02 03:05:10;;;;;;;13.73;4.70;;;;;;;;;;6086198;23;20030;-65
2023/11/02 03:08:01;;;;;;;9.23;4.68;;;;;;;;;;6086620;23;20156;-65
2023/11/02 03:10:55;;;;;;;8.93;4.28;;;;;;;;;;6086121;23;20491;-67
2023/11/02 03:13:49;;;;;;;9.32;4.30;;;;;;;;;;6086255;23;20381;-67
2023/11/02 03:16:43;;;;;;;9.05;4.63;;;;;;;;;;6087452;23;20074;-67
2023/11/02 03:19:42;;;;;;;11.65;5.07;;;;;;;;;;6088145;23;20081;-67
2023/11/02 03:22:30;;;;;;;16.15;5.00;;;;;;;;;;6084974;23;20026;-67
2023/11/02 03:25:42;;;;;;;10.07;4.80;;;;;;;;;;6086826;23;20023;-66
2023/11/02 03:28:44;;;;;;;13.50;5.13;;;;;;;;;;6057016;23;20041;-65
2023/11/02 03:31:57;;;;;;;16.73;5.53;;;;;;;;;;6058991;23;20031;-61
2023/11/02 03:34:53;;;;;;;18.45;5.65;;;;;;;;;;6059041;23;20026;-62
2023/11/02 03:37:51;;;;;;;14.85;5.63;;;;;;;;;;6057819;23;20086;-61
2023/11/02 03:40:48;;;;;;;17.73;5.40;;;;;;;;;;6058908;23;20087;-61
2023/11/02 03:43:58;;;;;;;16.05;5.50;;;;;;;;;;6056387;23;20027;-61
2023/11/02 03:47:07;;;;;;;20.50;6.15;;;;;;;;;;6057653;23;20545;-61
2023/11/02 03:50:13;;;;;;;23.88;6.78;;;;;;;;;;6058870;23;20029;-61
2023/11/02 03:53:14;;;;;;;25.02;7.28;;;;;;;;;;6056637;23;20307;-62
2023/11/02 03:56:37;;;;;;;26.50;7.72;;;;;;;;;;6057674;23;20023;-61
2023/11/02 03:59:37;;;;;;;28.35;7.25;;;;;;;;;;5910773;24;20065;-61
2023/11/02 04:02:32;;;;;;;27.25;7.95;;;;;;;;;;6055368;23;20338;-61
2023/11/02 04:05:19;;;;;;;34.77;7.87;;;;;;;;;;6056875;23;20023;-67
2023/11/02 04:08:16;;;;;;;17.08;7.25;;;;;;;;;;6058970;23;20057;-65
2023/11/02 04:11:09;;;;;;;32.00;7.85;;;;;;;;;;6057098;23;20026;-65
2023/11/02 04:14:13;;;;;;;41.75;9.63;;;;;;;;;;6056254;23;20027;-66
2023/11/02 04:17:01;;;;;;;38.92;9.02;;;;;;;;;;6056373;23;20023;-65
2023/11/02 04:19:55;;;;;;;33.65;9.00;;;;;;;;;;6058458;23;20038;-65
2023/11/02 04:22:22;;;;;;;32.55;9.63;;;;;;;;;;6056062;23;20536;-67
2023/11/02 04:25:17;;;;;;;41.55;9.75;;;;;;;;;;6057333;23;20031;-60
2023/11/02 04:28:11;;;;;;;39.40;9.68;;;;;;;;;;6055711;23;20027;-64
2023/11/02 04:31:05;;;;;;;46.70;10.35;;;;;;;;;;6056926;23;20030;-60
2023/11/02 04:33:52;;;;;;;37.40;9.20;;;;;;;;;;6059030;23;20029;-61
2023/11/02 04:36:46;;;;;;;37.38;10.05;;;;;;;;;;6057410;23;20027;-60
2023/11/02 04:39:33;;;;;;;44.10;10.88;;;;;;;;;;6058165;23;20030;-63
2023/11/02 04:42:28;;;;;;;51.15;10.40;;;;;;;;;;6055246;23;20250;-61
2023/11/02 04:45:22;;;;;;;46.67;10.57;;;;;;;;;;6055724;23;20078;-60
2023/11/02 04:48:10;;;;;;;42.97;10.68;;;;;;;;;;6057033;23;20082;-59
2023/11/02 04:51:04;;;;;;;41.08;9.38;;;;;;;;;;6055854;23;20489;-58
2023/11/02 04:53:51;;;;;;;46.07;10.93;;;;;;;;;;6055490;23;20074;-60
2023/11/02 04:56:45;;;;;;;41.97;11.05;;;;;;;;;;6054148;23;20132;-60
2023/11/02 04:59:36;;;;;;;45.67;10.98;;;;;;;;;;6057221;23;20058;-48
2023/11/02 05:02:33;;;;;;;71.50;13.68;;;;;;;;;;6051689;23;20022;-65
2023/11/02 05:05:20;;;;;;;59.83;12.20;;;;;;;;;;6055319;23;20106;-65
2023/11/02 05:08:14;;;;;;;53.58;10.80;;;;;;;;;;6057037;23;20026;-64
2023/11/02 05:11:01;;;;;;;56.10;12.27;;;;;;;;;;6031189;23;20102;-65
2023/11/02 05:13:56;;;;;;;58.78;11.18;;;;;;;;;;6052156;23;20023;-65
2023/11/02 05:16:43;;;;;;;57.95;12.77;;;;;;;;;;6051451;23;20160;-65
2023/11/02 05:19:39;;;;;;;56.38;11.45;;;;;;;;;;6053243;23;20043;-60
2023/11/02 05:22:27;;;;;;;50.65;13.05;;;;;;;;;;6056295;23;20255;-60
2023/11/02 05:25:20;;;;;;;43.15;11.00;;;;;;;;;;6054874;23;20023;-60
2023/11/02 05:28:17;;;;;;;54.75;12.93;;;;;;;;;;6085485;23;20033;-60
2023/11/02 05:31:11;;;;;;;52.28;12.68;;;;;;;;;;6085225;23;20357;-59
2023/11/02 05:34:04;;;;;;;59.80;13.23;;;;;;;;;;6084950;23;20457;-58
2023/11/02 05:36:52;;;;;;;61.40;13.05;;;;;;;;;;6086206;23;20022;-50
2023/11/02 05:39:45;;;;;;;49.70;12.63;;;;;;;;;;6085192;23;20034;-54
2023/11/02 05:42:33;;;;;;;73.03;14.95;;;;;;;;;;6079797;23;20077;-57
2023/11/02 05:45:26;;;;;;;73.57;13.88;;;;;;;;;;6082606;23;20026;-58
2023/11/02 05:48:13;;;;;;;68.63;13.95;;;;;;;;;;6083975;23;20026;-57
2023/11/02 05:51:07;;;;;;;70.82;13.05;;;;;;;;;;6082585;23;20026;-54
2023/11/02 05:53:55;;;;;;;63.72;13.10;;;;;;;;;;6082061;23;20401;-60
2023/11/02 05:56:48;;;;;;;49.60;11.20;;;;;;;;;;6078388;23;20033;-61
2023/11/02 05:59:35;;;;;;;66.55;13.95;;;;;;;;;;6082491;23;20037;-59
2023/11/02 06:02:32;;;;;;;61.28;14.00;;;;;;;;;;6081069;23;20058;-59
2023/11/02 06:05:17;;;;;;;65.82;13.95;;;;;;;;;;6080452;23;20102;-59
2023/11/02 06:08:10;;;;;;;48.88;12.38;;;;;;;;;;6082396;23;20026;-60
2023/11/02 06:10:57;;;;;;;54.15;13.15;;;;;;;;;;6077762;23;20103;-60
2023/11/02 06:13:52;;;;;;;62.95;13.75;;;;;;;;;;6085332;23;20023;-59
2023/11/02 06:16:39;;;;;;;51.28;10.85;;;;;;;;;;6084458;23;20425;-63
2023/11/02 06:19:34;;;;;;;60.00;13.65;;;;;;;;;;6084245;23;20360;-63
2023/11/02 06:22:20;;;;;;;39.65;12.32;;;;;;;;;;6083915;23;20520;-63
2023/11/02 06:25:15;;;;;;;58.15;12.63;;;;;;;;;;6088356;23;20404;-64
2023/11/02 06:28:08;;;;;;;53.03;12.77;;;;;;;;;;6086937;23;20547;-63
2023/11/02 06:31:02;;;;;;;48.72;12.38;;;;;;;;;;6087534;23;20074;-56
2023/11/02 06:33:50;;;;;;;46.80;12.98;;;;;;;;;;6086803;23;20089;-58
2023/11/02 06:36:44;;;;;;;64.05;14.00;;;;;;;;;;6087637;23;20022;-59
2023/11/02 06:39:31;;;;;;;55.05;13.23;;;;;;;;;;6086432;23;20030;-60
2023/11/02 06:42:27;;;;;;;53.38;12.93;;;;;;;;;;6085411;23;20030;-60
2023/11/02 06:45:13;;;;;;;40.88;11.45;;;;;;;;;;6086844;23;20093;-58
2023/11/02 06:48:06;;;;;;;39.15;10.50;;;;;;;;;;6085625;23;20062;-64
2023/11/02 06:50:54;;;;;;;41.60;11.43;;;;;;;;;;6086209;23;20480;-64
2023/11/02 06:53:47;;;;;;;41.88;11.00;;;;;;;;;;6087146;23;20045;-65
2023/11/02 06:56:35;;;;;;;35.30;10.85;;;;;;;;;;6085729;23;20018;-64
2023/11/02 06:59:29;;;;;;;32.63;10.40;;;;;;;;;;6088850;23;20030;-65
2023/11/02 07:02:17;;;;;;;39.15;11.18;;;;;;;;;;6087237;23;20026;-64
2023/11/02 07:05:10;;;;;;;24.33;7.53;;;;;;;;;;6087542;23;20085;-65
2023/11/02 07:07:57;;;;;;;27.45;9.68;;;;;;;;;;6087030;23;20029;-52
2023/11/02 07:10:52;;;;;;;28.05;7.93;;;;;;;;;;6086243;23;20108;-57
2023/11/02 07:13:39;;;;;;;34.90;10.13;;;;;;;;;;6086571;23;20085;-59
2023/11/02 07:16:33;;;;;;;27.45;8.48;;;;;;;;;;6086691;23;20078;-59
2023/11/02 07:19:20;;;;;;;26.58;8.48;;;;;;;;;;6087609;23;20074;-58
2023/11/02 07:22:14;;;;;;;36.60;9.68;;;;;;;;;;6086882;23;20041;-58
2023/11/02 07:25:02;;;;;;;25.90;9.18;;;;;;;;;;6086712;23;20077;-64
2023/11/02 07:28:03;;;;;;;23.23;7.20;;;;;;;;;;6087449;23;20030;-50
2023/11/02 07:30:49;;;;;;;21.75;8.40;;;;;;;;;;6082728;23;20022;-48
2023/11/02 07:33:43;;;;;;;24.65;8.55;;;;;;;;;;6074276;23;20022;-55
2023/11/02 07:36:31;;;;;;;34.60;9.55;;;;;;;;;;6086460;23;20030;-52
2023/11/02 07:39:25;;;;;;;28.65;9.98;;;;;;;;;;6087077;23;20026;-53
2023/11/02 07:42:12;;;;;;;23.92;7.80;;;;;;;;;;6085900;23;20029;-54
2023/11/02 07:45:05;;;;;;;24.27;8.30;;;;;;;;;;6085959;23;20030;-53
2023/11/02 07:47:53;;;;;;;24.83;9.43;;;;;;;;;;6086653;23;20026;-63
2023/11/02 07:50:47;;;;;;;27.42;9.57;;;;;;;;;;6085970;23;20113;-64
2023/11/02 07:53:34;;;;;;;31.77;9.60;;;;;;;;;;6087751;23;20029;-63
2023/11/02 07:56:27;;;;;;;28.83;9.50;;;;;;;;;;6086559;23;20456;-63
2023/11/02 07:59:15;;;;;;;29.75;10.07;;;;;;;;;;6086955;23;20022;-63
2023/11/02 08:02:08;;;;;;;26.85;8.57;;;;;;;;;;6085031;23;20023;-59
2023/11/02 08:04:56;;;;;;;27.35;8.63;;;;;;;;;;6086357;23;20623;-64
2023/11/02 08:07:49;;;;;;;30.15;9.07;;;;;;;;;;6086060;23;20480;-64
2023/11/02 08:10:37;;;;;;;23.65;8.23;;;;;;;;;;6086802;23;20019;-64
2023/11/02 08:13:33;;;;;;;28.58;9.90;;;;;;;;;;6087552;23;20026;-63
2023/11/02 08:16:27;;;;;;;29.88;10.82;;;;;;;;;;6086123;23;20503;-64
2023/11/02 08:19:21;;;;;;;33.60;11.00;;;;;;;;;;6086522;23;20042;-64
2023/11/02 08:22:08;;;;;;;46.97;11.68;;;;;;;;;;6085135;23;20030;-59
2023/11/02 08:25:03;;;;;;;35.42;10.95;;;;;;;;;;6085558;23;20019;-64
2023/11/02 08:28:03;;;;;;;35.05;11.07;;;;;;;;;;6085753;23;20034;-65
2023/11/02 08:31:00;;;;;;;34.45;11.73;;;;;;;;;;6086564;23;20030;-64
2023/11/02 08:33:54;;;;;;;28.17;10.88;;;;;;;;;;6085741;23;20117;-64
2023/11/02 08:36:42;;;;;;;33.85;12.15;;;;;;;;;;6085233;23;20026;-64
2023/11/02 08:39:38;;;;;;;28.45;11.43;;;;;;;;;;6086820;23;20022;-64
2023/11/02 08:42:27;;;;;;;35.65;11.98;;;;;;;;;;6084209;23;20365;-57
2023/11/02 08:45:20;;;;;;;36.63;11.82;;;;;;;;;;6086784;23;20022;-57
2023/11/02 08:48:14;;;;;;;31.10;11.75;;;;;;;;;;6085644;23;20484;-58
2023/11/02 08:51:09;;;;;;;30.02;10.30;;;;;;;;;;6085559;23;20595;-54
2023/11/02 08:53:56;;;;;;;26.92;11.20;;;;;;;;;;6085903;23;20022;-57
2023/11/02 08:56:49;;;;;;;27.45;10.68;;;;;;;;;;6087005;23;20022;-63
2023/11/02 08:59:37;;;;;;;22.45;10.27;;;;;;;;;;6087501;23;20030;-59
2023/11/02 09:02:37;;;;;;;23.23;9.65;;;;;;;;;;6086034;23;20030;-57
2023/11/02 09:05:24;;;;;;;21.50;9.88;;;;;;;;;;6088082;23;20034;-56
2023/11/02 09:08:18;;;;;;;20.65;8.57;;;;;;;;;;6086136;23;20130;-53
2023/11/02 09:11:05;;;;;;;20.42;10.15;;;;;;;;;;6086162;23;20034;-55
2023/11/02 09:13:59;;;;;;;13.70;7.30;;;;;;;;;;6085898;23;20030;-56
2023/11/02 09:16:47;;;;;;;17.50;8.98;;;;;;;;;;6085955;23;20026;-64
2023/11/02 09:19:43;;;;;;;16.42;8.05;;;;;;;;;;6086924;23;20097;-63
2023/11/02 09:22:27;;;;;;;19.10;9.27;;;;;;;;;;6083216;23;20022;-63
2023/11/02 09:25:21;;;;;;;13.85;7.63;;;;;;;;;;6086981;23;20089;-63
2023/11/02 09:28:15;;;;;;;17.90;8.98;;;;;;;;;;6085924;23;20117;-63
2023/11/02 09:31:12;;;;;;;10.20;6.03;;;;;;;;;;6085328;23;20106;-63
2023/11/02 09:34:03;;;;;;;9.98;6.30;;;;;;;;;;6084931;23;20029;-54
2023/11/02 09:36:58;;;;;;;9.30;5.43;;;;;;;;;;6085100;23;20074;-56
2023/11/02 09:39:45;;;;;;;9.82;6.30;;;;;;;;;;6086599;23;20022;-56
2023/11/02 09:42:38;;;;;;;9.15;5.72;;;;;;;;;;6085262;23;20529;-55
2023/11/02 09:45:26;;;;;;;8.95;5.93;;;;;;;;;;6085544;23;20853;-56
2023/11/02 09:48:19;;;;;;;10.32;5.95;;;;;;;;;;6083221;23;20317;-59
2023/11/02 09:51:08;;;;;;;7.75;4.90;;;;;;;;;;6085126;23;20050;-60
2023/11/02 09:54:01;;;;;;;7.38;5.30;;;;;;;;;;6086327;23;20030;-58
2023/11/02 09:57:06;;;;;;;8.30;4.70;;;;;;;;;;6085776;23;20026;-45
2023/11/02 10:00:00;;;;;;;8.32;4.97;;;;;;;;;;6089652;23;20026;-50
2023/11/02 10:02:54;;;;;;;;;;;;;;;;;;6088019;23;20081;-49
2023/11/02 10:05:50;;;;;;;8.30;3.45;;;;;;;;;;6087902;23;20367;-51
2023/11/02 10:08:36;;;;;;;7.75;4.20;;;;;;;;;;6088572;23;20346;-48
2023/11/02 10:11:29;;;;;;;9.25;4.65;;;;;;;;;;6088357;23;20073;-60
2023/11/02 10:14:23;;;;;;;6.13;4.00;;;;;;;;;;6087857;23;20026;-57
2023/11/02 10:17:18;;;;;;;5.65;4.20;;;;;;;;;;6087332;23;20418;-56
2023/11/02 10:20:12;;;;;;;5.80;4.25;;;;;;;;;;6087042;23;20026;-53
2023/11/02 10:23:05;;;;;;;5.43;4.30;;;;;;;;;;6087022;23;20026;-59
2023/11/02 10:25:55;;;;;;;8.48;3.92;;;;;;;;;;6088841;23;20030;-53
2023/11/02 10:28:50;;;;;;;5.25;3.95;;;;;;;;;;6088362;23;20022;-64
2023/11/02 10:31:44;;;;;;;6.47;4.40;;;;;;;;;;6087699;23;20023;-56
2023/11/02 10:34:31;;;;;;;4.93;4.10;;;;;;;;;;6087653;23;20692;-62
2023/11/02 10:37:34;;;;;;;7.70;4.35;;;;;;;;;;6085356;23;20026;-63
2023/11/02 10:40:22;;;;;;;8.85;4.60;;;;;;;;;;6087246;23;20037;-62
2023/11/02 10:43:19;;;;;;;9.82;4.25;;;;;;;;;;6086852;23;20022;-62
2023/11/02 10:46:08;;;;;;;8.00;4.13;;;;;;;;;;6087158;23;20090;-62
2023/11/02 10:49:04;;;;;;;5.38;4.20;;;;;;;;;;6087968;23;20102;-62
2023/11/02 10:51:58;;;;;;;6.85;4.45;;;;;;;;;;6086311;23;20030;-54
2023/11/02 10:55:04;;;;;;;7.72;4.60;;;;;;;;;;6087931;23;20045;-53
2023/11/02 10:57:53;;;;;;;8.40;4.07;;;;;;;;;;6086821;23;20029;-51
2023/11/02 11:00:50;;;;;;;7.65;3.78;;;;;;;;;;6085979;23;20026;-54
2023/11/02 11:03:36;;;;;;;11.35;4.97;;;;;;;;;;6086232;23;20022;-53
2023/11/02 11:06:30;;;;;;;11.00;4.88;;;;;;;;;;6085686;23;20026;-57
2023/11/02 11:09:17;;;;;;;7.18;4.53;;;;;;;;;;6086233;23;20109;-60
2023/11/02 11:12:14;;;;;;;8.20;5.25;;;;;;;;;;6088406;23;20030;-59
2023/11/02 11:15:02;;;;;;;7.50;4.60;;;;;;;;;;6087886;23;20029;-59
2023/11/02 11:17:56;;;;;;;8.50;5.13;;;;;;;;;;6088244;23;20492;-59
2023/11/02 11:20:45;;;;;;;9.20;5.35;;;;;;;;;;6088006;23;20030;-59
2023/11/02 11:23:45;;;;;;;9.35;5.55;;;;;;;;;;6085506;23;20543;-59
2023/11/02 11:26:27;;;;;;;10.35;5.57;;;;;;;;;;6084600;23;20118;-53
2023/11/02 11:29:53;;;;;;;6.78;4.75;;;;;;;;;;6057679;23;20030;-60
2023/11/02 11:32:49;;;;;;;11.18;5.63;;;;;;;;;;6058299;23;20023;-60
2023/11/02 11:35:36;;;;;;;9.30;6.10;;;;;;;;;;6058191;23;20065;-59
2023/11/02 11:38:41;;;;;;;8.07;5.15;;;;;;;;;;6057058;23;20093;-59
2023/11/02 11:41:45;;;;;;;7.38;5.43;;;;;;;;;;6056369;23;20029;-59
2023/11/02 11:44:40;;;;;;;8.98;5.10;;;;;;;;;;6057604;23;20030;-63
2023/11/02 11:47:45;;;;;;;6.30;4.03;;;;;;;;;;6058234;23;20031;-64
2023/11/02 11:50:40;;;;;;;8.75;4.60;;;;;;;;;;6056875;23;20507;-63
2023/11/02 11:53:28;;;;;;;5.87;4.77;;;;;;;;;;6056804;23;20023;-64
2023/11/02 11:56:32;;;;;;;7.72;5.10;;;;;;;;;;6057124;23;20843;-65
2023/11/02 11:59:43;;;;;;;10.15;5.53;;;;;;;;;;6059281;23;20022;-64
2023/11/02 12:02:33;;;;;;;8.40;5.25;;;;;;;;;;6056931;23;20023;-59
2023/11/02 12:05:50;;;;;;;7.72;5.15;;;;;;;;;;6058494;23;20491;-64
2023/11/02 12:08:51;;;;;;;11.85;5.32;;;;;;;;;;6056785;23;20023;-64
2023/11/02 12:11:38;;;;;;;11.75;4.85;;;;;;;;;;6056942;23;20254;-64
2023/11/02 12:14:32;;;;;;;7.53;4.95;;;;;;;;;;6057782;23;20050;-64
2023/11/02 12:17:19;;;;;;;7.38;5.82;;;;;;;;;;6057843;23;20472;-64
2023/11/02 12:20:32;;;;;;;8.43;5.13;;;;;;;;;;6058681;23;20437;-51
2023/11/02 12:23:20;;;;;;;12.23;6.13;;;;;;;;;;6051874;23;20023;-58
2023/11/02 12:26:14;;;;;;;8.05;5.60;;;;;;;;;;6054763;23;20026;-57
2023/11/02 12:29:08;;;;;;;8.80;6.20;;;;;;;;;;6055339;23;20027;-57
2023/11/02 12:31:43;;;;;;;10.77;5.85;;;;;;;;;;6055424;23;20023;-57
2023/11/02 12:34:29;;;;;;;9.13;5.53;;;;;;;;;;6055742;23;20110;-58
2023/11/02 12:37:26;;;;;;;13.80;7.63;;;;;;;;;;6055746;23;20070;-64
2023/11/02 12:40:12;;;;;;;12.55;8.00;;;;;;;;;;6054288;23;20022;-65
2023/11/02 12:42:47;;;;;;;10.90;7.65;;;;;;;;;;6056353;23;20027;-50
2023/11/02 12:45:34;;;;;;;12.20;7.15;;;;;;;;;;6056612;23;20085;-47
2023/11/02 12:48:30;;;;;;;11.65;8.48;;;;;;;;;;6056486;23;20027;-51
2023/11/02 12:51:23;;;;;;;12.70;6.40;;;;;;;;;;6053095;23;20027;-47
2023/11/02 12:54:18;;;;;;;11.77;6.82;;;;;;;;;;6053948;23;20030;-48
2023/11/02 12:57:07;;;;;;;10.13;5.88;;;;;;;;;;6057899;23;20528;-52
2023/11/02 13:00:02;;;;;;;10.80;5.10;;;;;;;;;;6056340;23;20357;-64
2023/11/02 13:02:48;;;;;;;13.93;6.10;;;;;;;;;;6051435;23;20027;-64
2023/11/02 13:05:41;;;;;;;9.95;5.70;;;;;;;;;;6054704;23;20058;-65
2023/11/02 13:08:29;;;;;;;10.73;5.82;;;;;;;;;;6056308;23;20031;-65
2023/11/02 13:11:22;;;;;;;8.27;5.55;;;;;;;;;;6057263;23;20026;-64
2023/11/02 13:14:11;;;;;;;11.48;5.90;;;;;;;;;;6055300;23;20086;-52
2023/11/02 13:17:05;;;;;;;6.97;5.15;;;;;;;;;;6056097;23;20453;-50
2023/11/02 13:19:52;;;;;;;12.93;6.68;;;;;;;;;;6054890;23;20023;-56
2023/11/02 13:22:47;;;;;;;8.93;6.15;;;;;;;;;;6053014;23;20126;-51
2023/11/02 13:25:33;;;;;;;11.30;5.95;;;;;;;;;;6053777;23;20023;-52
2023/11/02 13:28:35;;;;;;;11.43;6.80;;;;;;;;;;6077577;23;20026;-50
2023/11/02 13:31:22;;;;;;;11.70;6.40;;;;;;;;;;6084753;23;20121;-52
2023/11/02 13:34:18;;;;;;;12.38;6.07;;;;;;;;;;6084688;23;20029;-64
2023/11/02 13:37:04;;;;;;;10.30;6.38;;;;;;;;;;6081692;23;20105;-60
2023/11/02 13:39:57;;;;;;;11.57;6.38;;;;;;;;;;6084628;23;20094;-60
2023/11/02 13:42:47;;;;;;;10.50;6.75;;;;;;;;;;6083738;23;20026;-60
2023/11/02 13:45:40;;;;;;;12.07;6.93;;;;;;;;;;6085500;23;20022;-59
2023/11/02 13:48:27;;;;;;;11.85;6.55;;;;;;;;;;6086283;23;20034;-60
2023/11/02 13:51:22;;;;;;;11.10;6.90;;;;;;;;;;6085014;23;20030;-48
2023/11/02 13:54:09;;;;;;;9.95;6.22;;;;;;;;;;6084118;23;20504;-64
2023/11/02 13:57:03;;;;;;;9.27;6.07;;;;;;;;;;6084562;23;20328;-65
2023/11/02 13:59:52;;;;;;;12.47;6.60;;;;;;;;;;6084386;23;20623;-64
2023/11/02 14:02:45;;;;;;;9.00;6.07;;;;;;;;;;6081966;23;20022;-65
2023/11/02 14:05:38;;;;;;;10.90;6.65;;;;;;;;;;6084759;23;20019;-65
2023/11/02 14:08:33;;;;;;;10.60;5.72;;;;;;;;;;6085013;23;20035;-63
2023/11/02 14:11:21;;;;;;;8.52;5.80;;;;;;;;;;6084756;23;20026;-62
2023/11/02 14:14:15;;;;;;;11.32;6.30;;;;;;;;;;6083845;23;20077;-64
2023/11/02 14:17:04;;;;;;;8.20;6.43;;;;;;;;;;6083831;23;20022;-64
2023/11/02 14:19:57;;;;;;;9.43;6.45;;;;;;;;;;6081972;23;20030;-65
2023/11/02 14:22:51;;;;;;;9.30;6.50;;;;;;;;;;6082806;23;20018;-65
2023/11/02 14:25:40;;;;;;;11.35;7.28;;;;;;;;;;6084663;23;20026;-64
2023/11/02 14:28:39;;;;;;;12.32;6.75;;;;;;;;;;6082354;23;20030;-59
2023/11/02 14:31:26;;;;;;;13.20;7.65;;;;;;;;;;6081927;23;20026;-63
2023/11/02 14:34:20;;;;;;;14.82;7.18;;;;;;;;;;6083842;23;20385;-62
2023/11/02 14:37:08;;;;;;;11.82;7.35;;;;;;;;;;6084627;23;20813;-62
2023/11/02 14:40:02;;;;;;;12.00;6.88;;;;;;;;;;6083653;23;20026;-63
2023/11/02 14:42:49;;;;;;;14.05;7.28;;;;;;;;;;6085205;23;20023;-62
2023/11/02 14:45:44;;;;;;;10.63;6.50;;;;;;;;;;6086366;23;20077;-62
2023/11/02 14:48:31;;;;;;;14.75;6.38;;;;;;;;;;6087752;23;20082;-46
2023/11/02 14:51:25;;;;;;;13.80;7.80;;;;;;;;;;6087021;23;20659;-50
2023/11/02 14:54:12;;;;;;;13.18;7.93;;;;;;;;;;6083801;23;20025;-49
2023/11/02 14:57:18;;;;;;;14.55;9.35;;;;;;;;;;6086616;23;20029;-49
2023/11/02 15:00:08;;;;;;;16.60;9.27;;;;;;;;;;6084336;23;20065;-50
2023/11/02 15:02:59;;;;;;;14.88;9.20;;;;;;;;;;6085084;23;20046;-48
2023/11/02 15:05:48;;;;;;;12.95;8.95;;;;;;;;;;6086818;23;20131;-64
2023/11/02 15:08:42;;;;;;;14.55;7.70;;;;;;;;;;6084438;23;20022;-48
2023/11/02 15:11:36;;;;;;;14.65;8.32;;;;;;;;;;6083411;23;20034;-49
2023/11/02 15:14:31;;;;;;;16.38;7.38;;;;;;;;;;6086373;23;20022;-47
2023/11/02 15:17:18;;;;;;;16.00;8.45;;;;;;;;;;6085209;23;20368;-51
2023/11/02 15:20:14;;;;;;;13.15;8.25;;;;;;;;;;6084146;23;20353;-51
2023/11/02 15:22:59;;;;;;;15.15;9.13;;;;;;;;;;6082723;23;20033;-60
2023/11/02 15:25:52;;;;;;;18.08;9.80;;;;;;;;;;6085582;23;20908;-59
2023/11/02 15:28:46;;;;;;;17.67;9.30;;;;;;;;;;6084833;23;20030;-65
2023/11/02 15:31:40;;;;;;;20.50;11.48;;;;;;;;;;6086188;23;20456;-65
2023/11/02 15:34:28;;;;;;;18.55;9.82;;;;;;;;;;6084621;23;20086;-65
2023/11/02 15:37:22;;;;;;;17.40;9.43;;;;;;;;;;6083956;23;20023;-65
2023/11/02 15:40:09;;;;;;;17.35;10.05;;;;;;;;;;6085926;23;20342;-65
2023/11/02 15:43:04;;;;;;;15.75;9.70;;;;;;;;;;6083393;23;20097;-54
2023/11/02 15:45:53;;;;;;;20.13;9.73;;;;;;;;;;6085109;23;20049;-59
2023/11/02 15:48:45;;;;;;;13.07;8.65;;;;;;;;;;6084704;23;20480;-58
2023/11/02 15:51:33;;;;;;;11.88;8.48;;;;;;;;;;6084408;23;20082;-58
2023/11/02 15:54:27;;;;;;;12.93;8.65;;;;;;;;;;6085518;23;20455;-59
2023/11/02 15:57:16;;;;;;;14.80;8.45;;;;;;;;;;6084393;23;20106;-59
2023/11/02 16:00:12;;;;;;;12.65;8.50;;;;;;;;;;6082137;23;20031;-65
2023/11/02 16:02:59;;;;;;;16.33;8.85;;;;;;;;;;6080187;23;20022;-65
2023/11/02 16:05:55;;;;;;;15.85;8.40;;;;;;;;;;6086264;23;20027;-64
2023/11/02 16:08:41;;;;;;;12.95;8.38;;;;;;;;;;6083541;23;20472;-65
2023/11/02 16:11:35;;;;;;;16.00;8.05;;;;;;;;;;6085177;23;20030;-64
2023/11/02 16:14:23;;;;;;;16.77;8.90;;;;;;;;;;6083195;23;20037;-65
2023/11/02 16:17:16;;;;;;;14.30;8.32;;;;;;;;;;6083454;23;20089;-65
2023/11/02 16:20:17;;;;;;;16.77;8.52;;;;;;;;;;6084959;23;20030;-47
2023/11/02 16:22:58;;;;;;;15.38;9.93;;;;;;;;;;6083059;23;20487;-65
2023/11/02 16:25:51;;;;;;;15.32;9.05;;;;;;;;;;6084533;23;20058;-65
2023/11/02 16:28:46;;;;;;;15.65;9.18;;;;;;;;;;6085195;23;20698;-65
2023/11/02 16:31:40;;;;;;;15.68;8.98;;;;;;;;;;6085161;23;20026;-66
2023/11/02 16:34:33;;;;;;;15.18;8.27;;;;;;;;;;6083122;23;20026;-64
2023/11/02 16:37:38;;;;;;;15.57;8.50;;;;;;;;;;6084165;23;20101;-55
2023/11/02 16:40:32;;;;;;;15.30;8.30;;;;;;;;;;6084010;23;20026;-57
2023/11/02 16:43:19;;;;;;;11.98;9.20;;;;;;;;;;6081923;23;20026;-56
2023/11/02 16:46:13;;;;;;;14.00;8.40;;;;;;;;;;6083698;23;20339;-55
2023/11/02 16:49:00;;;;;;;15.98;9.57;;;;;;;;;;6062615;23;20078;-57
2023/11/02 16:51:54;;;;;;;14.80;9.55;;;;;;;;;;6083059;23;20027;-56
2023/11/02 16:54:41;;;;;;;21.80;10.75;;;;;;;;;;6083411;23;20022;-56
2023/11/02 16:57:35;;;;;;;17.67;10.55;;;;;;;;;;6077527;23;20022;-58
2023/11/02 17:00:30;;;;;;;18.63;10.45;;;;;;;;;;6078308;23;20027;-63
2023/11/02 17:03:17;;;;;;;19.63;10.93;;;;;;;;;;6080127;23;20023;-63
2023/11/02 17:06:11;;;;;;;16.88;9.85;;;;;;;;;;6083389;23;20112;-64